sensor_id;sensor_type;location;lat;lon;timestamp;P1;durP1;ratioP1;P2;durP2;ratioP2
3101;SDS011;1561;42.666;23.392;2023-08-24T00:00:30;14.75;;;13.07;;
3101;SDS011;1561;42.666;23.392;2023-08-24T00:02:58;15.05;;;13.57;;
3101;SDS011;1561;42.666;23.392;2023-08-24T00:05:32;15.13;;;13.80;;
3101;SDS011;1561;42.666;23.392;2023-08-24T00:07:59;15.48;;;14.18;;
3101;SDS011;1561;42.666;23.392;2023-08-24T00:10:26;15.68;;;14.15;;
3101;SDS011;1561;42.666;23.392;2023-08-24T00:12:53;14.40;;;13.25;;
3101;SDS011;1561;42.666;23.392;2023-08-24T00:15:24;14.82;;;13.35;;
3101;SDS011;1561;42.666;23.392;2023-08-24T00:17:51;14.98;;;13.63;;
3101;SDS011;1561;42.666;23.392;2023-08-24T00:20:18;14.52;;;13.32;;
3101;SDS011;1561;42.666;23.392;2023-08-24T00:22:46;14.75;;;13.45;;
3101;SDS011;1561;42.666;23.392;2023-08-24T00:25:15;16.02;;;14.73;;
3101;SDS011;1561;42.666;23.392;2023-08-24T00:27:45;14.75;;;13.52;;
3101;SDS011;1561;42.666;23.392;2023-08-24T00:30:14;14.15;;;12.70;;
3101;SDS011;1561;42.666;23.392;2023-08-24T00:32:43;13.50;;;12.35;;
3101;SDS011;1561;42.666;23.392;2023-08-24T00:35:11;15.00;;;13.60;;
3101;SDS011;1561;42.666;23.392;2023-08-24T00:37:41;14.43;;;13.13;;
3101;SDS011;1561;42.666;23.392;2023-08-24T00:40:08;14.93;;;13.63;;
3101;SDS011;1561;42.666;23.392;2023-08-24T00:42:38;14.90;;;13.65;;
3101;SDS011;1561;42.666;23.392;2023-08-24T00:45:06;19.70;;;13.75;;
3101;SDS011;1561;42.666;23.392;2023-08-24T00:47:36;13.68;;;12.57;;
3101;SDS011;1561;42.666;23.392;2023-08-24T00:50:06;14.52;;;13.32;;
3101;SDS011;1561;42.666;23.392;2023-08-24T00:52:34;14.52;;;13.20;;
3101;SDS011;1561;42.666;23.392;2023-08-24T00:55:07;14.60;;;13.30;;
3101;SDS011;1561;42.666;23.392;2023-08-24T00:57:36;15.55;;;14.25;;
3101;SDS011;1561;42.666;23.392;2023-08-24T01:00:04;14.63;;;13.32;;
3101;SDS011;1561;42.666;23.392;2023-08-24T01:02:37;16.33;;;14.82;;
3101;SDS011;1561;42.666;23.392;2023-08-24T01:05:07;15.57;;;14.07;;
3101;SDS011;1561;42.666;23.392;2023-08-24T01:07:34;15.43;;;14.07;;
3101;SDS011;1561;42.666;23.392;2023-08-24T01:10:05;14.75;;;13.55;;
3101;SDS011;1561;42.666;23.392;2023-08-24T01:12:42;14.95;;;13.65;;
3101;SDS011;1561;42.666;23.392;2023-08-24T01:15:19;15.95;;;14.55;;
3101;SDS011;1561;42.666;23.392;2023-08-24T01:17:56;15.85;;;14.38;;
3101;SDS011;1561;42.666;23.392;2023-08-24T01:20:31;13.90;;;12.75;;
3101;SDS011;1561;42.666;23.392;2023-08-24T01:23:03;16.35;;;14.85;;
3101;SDS011;1561;42.666;23.392;2023-08-24T01:25:38;17.40;;;15.73;;
3101;SDS011;1561;42.666;23.392;2023-08-24T01:28:13;16.67;;;15.18;;
3101;SDS011;1561;42.666;23.392;2023-08-24T01:30:43;18.25;;;16.67;;
3101;SDS011;1561;42.666;23.392;2023-08-24T01:33:10;16.75;;;15.13;;
3101;SDS011;1561;42.666;23.392;2023-08-24T01:35:38;21.67;;;16.90;;
3101;SDS011;1561;42.666;23.392;2023-08-24T01:38:05;16.90;;;15.40;;
3101;SDS011;1561;42.666;23.392;2023-08-24T01:40:39;16.73;;;15.13;;
3101;SDS011;1561;42.666;23.392;2023-08-24T01:43:15;18.92;;;16.98;;
3101;SDS011;1561;42.666;23.392;2023-08-24T01:45:46;17.55;;;15.95;;
3101;SDS011;1561;42.666;23.392;2023-08-24T01:48:17;17.33;;;15.73;;
3101;SDS011;1561;42.666;23.392;2023-08-24T01:50:44;17.27;;;15.68;;
3101;SDS011;1561;42.666;23.392;2023-08-24T01:53:12;16.33;;;14.70;;
3101;SDS011;1561;42.666;23.392;2023-08-24T01:55:40;18.27;;;16.58;;
3101;SDS011;1561;42.666;23.392;2023-08-24T01:58:07;18.10;;;16.25;;
3101;SDS011;1561;42.666;23.392;2023-08-24T02:00:36;16.67;;;15.05;;
3101;SDS011;1561;42.666;23.392;2023-08-24T02:03:05;16.67;;;15.25;;
3101;SDS011;1561;42.666;23.392;2023-08-24T02:05:32;17.05;;;15.63;;
3101;SDS011;1561;42.666;23.392;2023-08-24T02:07:59;16.63;;;15.23;;
3101;SDS011;1561;42.666;23.392;2023-08-24T02:10:26;17.35;;;15.95;;
3101;SDS011;1561;42.666;23.392;2023-08-24T02:12:53;16.83;;;15.27;;
3101;SDS011;1561;42.666;23.392;2023-08-24T02:15:23;16.88;;;15.48;;
3101;SDS011;1561;42.666;23.392;2023-08-24T02:17:53;15.90;;;14.40;;
3101;SDS011;1561;42.666;23.392;2023-08-24T02:20:20;15.63;;;14.20;;
3101;SDS011;1561;42.666;23.392;2023-08-24T02:22:47;16.83;;;15.23;;
3101;SDS011;1561;42.666;23.392;2023-08-24T02:25:14;16.73;;;15.23;;
3101;SDS011;1561;42.666;23.392;2023-08-24T02:27:42;16.90;;;15.27;;
3101;SDS011;1561;42.666;23.392;2023-08-24T02:30:09;16.20;;;14.80;;
3101;SDS011;1561;42.666;23.392;2023-08-24T02:32:38;17.08;;;13.77;;
3101;SDS011;1561;42.666;23.392;2023-08-24T02:35:10;15.55;;;14.15;;
3101;SDS011;1561;42.666;23.392;2023-08-24T02:37:37;15.65;;;14.15;;
3101;SDS011;1561;42.666;23.392;2023-08-24T02:40:04;15.88;;;14.43;;
3101;SDS011;1561;42.666;23.392;2023-08-24T02:42:34;15.48;;;13.93;;
3101;SDS011;1561;42.666;23.392;2023-08-24T02:45:01;15.35;;;13.82;;
3101;SDS011;1561;42.666;23.392;2023-08-24T02:47:29;16.02;;;14.35;;
3101;SDS011;1561;42.666;23.392;2023-08-24T02:49:59;14.98;;;13.52;;
3101;SDS011;1561;42.666;23.392;2023-08-24T02:52:28;15.27;;;13.93;;
3101;SDS011;1561;42.666;23.392;2023-08-24T02:54:55;16.73;;;15.05;;
3101;SDS011;1561;42.666;23.392;2023-08-24T02:57:24;14.57;;;13.27;;
3101;SDS011;1561;42.666;23.392;2023-08-24T02:59:51;15.27;;;13.88;;
3101;SDS011;1561;42.666;23.392;2023-08-24T03:02:18;15.05;;;13.65;;
3101;SDS011;1561;42.666;23.392;2023-08-24T03:04:46;15.52;;;14.02;;
3101;SDS011;1561;42.666;23.392;2023-08-24T03:07:13;14.88;;;13.48;;
3101;SDS011;1561;42.666;23.392;2023-08-24T03:09:41;15.63;;;14.25;;
3101;SDS011;1561;42.666;23.392;2023-08-24T03:12:09;15.43;;;14.02;;
3101;SDS011;1561;42.666;23.392;2023-08-24T03:14:36;16.40;;;15.00;;
3101;SDS011;1561;42.666;23.392;2023-08-24T03:17:05;16.30;;;14.65;;
3101;SDS011;1561;42.666;23.392;2023-08-24T03:19:33;15.10;;;13.80;;
3101;SDS011;1561;42.666;23.392;2023-08-24T03:21:59;15.25;;;13.73;;
3101;SDS011;1561;42.666;23.392;2023-08-24T03:24:28;14.75;;;13.35;;
3101;SDS011;1561;42.666;23.392;2023-08-24T03:26:56;18.00;;;16.30;;
3101;SDS011;1561;42.666;23.392;2023-08-24T03:29:24;19.15;;;15.20;;
3101;SDS011;1561;42.666;23.392;2023-08-24T03:31:52;16.73;;;15.05;;
3101;SDS011;1561;42.666;23.392;2023-08-24T03:34:19;15.63;;;14.15;;
3101;SDS011;1561;42.666;23.392;2023-08-24T03:36:48;16.00;;;14.60;;
3101;SDS011;1561;42.666;23.392;2023-08-24T03:39:15;17.27;;;15.57;;
3101;SDS011;1561;42.666;23.392;2023-08-24T03:41:42;16.65;;;15.07;;
3101;SDS011;1561;42.666;23.392;2023-08-24T03:44:14;17.35;;;15.68;;
3101;SDS011;1561;42.666;23.392;2023-08-24T03:46:42;19.33;;;16.33;;
3101;SDS011;1561;42.666;23.392;2023-08-24T03:49:12;17.58;;;15.85;;
3101;SDS011;1561;42.666;23.392;2023-08-24T03:51:41;17.60;;;16.08;;
3101;SDS011;1561;42.666;23.392;2023-08-24T03:54:08;18.48;;;16.63;;
3101;SDS011;1561;42.666;23.392;2023-08-24T03:56:35;17.80;;;15.95;;
3101;SDS011;1561;42.666;23.392;2023-08-24T03:59:02;19.45;;;17.50;;
3101;SDS011;1561;42.666;23.392;2023-08-24T04:01:33;19.00;;;17.02;;
3101;SDS011;1561;42.666;23.392;2023-08-24T04:04:03;29.40;;;17.70;;
3101;SDS011;1561;42.666;23.392;2023-08-24T04:06:30;18.77;;;16.77;;
3101;SDS011;1561;42.666;23.392;2023-08-24T04:08:57;21.83;;;18.10;;
3101;SDS011;1561;42.666;23.392;2023-08-24T04:11:24;18.52;;;16.38;;
3101;SDS011;1561;42.666;23.392;2023-08-24T04:13:52;19.58;;;17.55;;
3101;SDS011;1561;42.666;23.392;2023-08-24T04:16:19;18.73;;;16.92;;
3101;SDS011;1561;42.666;23.392;2023-08-24T04:18:50;19.38;;;17.48;;
3101;SDS011;1561;42.666;23.392;2023-08-24T04:21:17;18.63;;;16.83;;
3101;SDS011;1561;42.666;23.392;2023-08-24T04:23:44;17.25;;;15.45;;
3101;SDS011;1561;42.666;23.392;2023-08-24T04:26:11;17.10;;;15.45;;
3101;SDS011;1561;42.666;23.392;2023-08-24T04:28:38;21.42;;;17.90;;
3101;SDS011;1561;42.666;23.392;2023-08-24T04:31:06;17.98;;;16.30;;
3101;SDS011;1561;42.666;23.392;2023-08-24T04:33:33;18.55;;;16.77;;
3101;SDS011;1561;42.666;23.392;2023-08-24T04:36:04;25.42;;;18.27;;
3101;SDS011;1561;42.666;23.392;2023-08-24T04:38:31;18.20;;;16.60;;
3101;SDS011;1561;42.666;23.392;2023-08-24T04:40:58;18.70;;;16.85;;
3101;SDS011;1561;42.666;23.392;2023-08-24T04:43:25;19.42;;;16.35;;
3101;SDS011;1561;42.666;23.392;2023-08-24T04:45:53;18.65;;;16.75;;
3101;SDS011;1561;42.666;23.392;2023-08-24T04:48:20;18.83;;;16.88;;
3101;SDS011;1561;42.666;23.392;2023-08-24T04:50:48;18.08;;;16.48;;
3101;SDS011;1561;42.666;23.392;2023-08-24T04:53:19;19.83;;;17.88;;
3101;SDS011;1561;42.666;23.392;2023-08-24T04:55:46;22.63;;;17.48;;
3101;SDS011;1561;42.666;23.392;2023-08-24T04:58:13;17.25;;;15.48;;
3101;SDS011;1561;42.666;23.392;2023-08-24T05:00:41;20.20;;;16.77;;
3101;SDS011;1561;42.666;23.392;2023-08-24T05:03:08;17.90;;;15.95;;
3101;SDS011;1561;42.666;23.392;2023-08-24T05:05:35;18.08;;;16.35;;
3101;SDS011;1561;42.666;23.392;2023-08-24T05:08:04;22.30;;;15.77;;
3101;SDS011;1561;42.666;23.392;2023-08-24T05:10:36;17.95;;;16.20;;
3101;SDS011;1561;42.666;23.392;2023-08-24T05:13:05;35.63;;;18.60;;
3101;SDS011;1561;42.666;23.392;2023-08-24T05:15:31;19.40;;;15.93;;
3101;SDS011;1561;42.666;23.392;2023-08-24T05:17:58;23.35;;;20.90;;
3101;SDS011;1561;42.666;23.392;2023-08-24T05:20:25;18.42;;;16.63;;
3101;SDS011;1561;42.666;23.392;2023-08-24T05:22:52;19.25;;;17.35;;
3101;SDS011;1561;42.666;23.392;2023-08-24T05:25:24;16.05;;;14.40;;
3101;SDS011;1561;42.666;23.392;2023-08-24T05:27:54;15.77;;;14.38;;
3101;SDS011;1561;42.666;23.392;2023-08-24T05:30:21;20.08;;;18.05;;
3101;SDS011;1561;42.666;23.392;2023-08-24T05:32:49;16.60;;;14.82;;
3101;SDS011;1561;42.666;23.392;2023-08-24T05:35:17;16.98;;;15.38;;
3101;SDS011;1561;42.666;23.392;2023-08-24T05:37:47;15.20;;;13.70;;
3101;SDS011;1561;42.666;23.392;2023-08-24T05:40:14;17.55;;;15.80;;
3101;SDS011;1561;42.666;23.392;2023-08-24T05:42:41;18.80;;;16.70;;
3101;SDS011;1561;42.666;23.392;2023-08-24T05:45:12;23.83;;;20.35;;
3101;SDS011;1561;42.666;23.392;2023-08-24T05:47:40;26.92;;;20.33;;
3101;SDS011;1561;42.666;23.392;2023-08-24T05:50:09;29.08;;;21.30;;
3101;SDS011;1561;42.666;23.392;2023-08-24T05:52:36;22.88;;;20.45;;
3101;SDS011;1561;42.666;23.392;2023-08-24T05:55:06;27.80;;;20.73;;
3101;SDS011;1561;42.666;23.392;2023-08-24T05:57:36;27.13;;;24.05;;
3101;SDS011;1561;42.666;23.392;2023-08-24T06:00:04;27.60;;;22.98;;
3101;SDS011;1561;42.666;23.392;2023-08-24T06:02:36;28.20;;;23.48;;
3101;SDS011;1561;42.666;23.392;2023-08-24T06:05:07;25.52;;;21.15;;
3101;SDS011;1561;42.666;23.392;2023-08-24T06:07:36;26.95;;;21.23;;
3101;SDS011;1561;42.666;23.392;2023-08-24T06:10:03;24.98;;;22.48;;
3101;SDS011;1561;42.666;23.392;2023-08-24T06:12:30;28.60;;;22.50;;
3101;SDS011;1561;42.666;23.392;2023-08-24T06:14:57;24.80;;;21.63;;
3101;SDS011;1561;42.666;23.392;2023-08-24T06:17:27;25.73;;;22.75;;
3101;SDS011;1561;42.666;23.392;2023-08-24T06:19:55;23.85;;;21.45;;
3101;SDS011;1561;42.666;23.392;2023-08-24T06:22:23;28.85;;;22.27;;
3101;SDS011;1561;42.666;23.392;2023-08-24T06:24:50;34.72;;;31.02;;
3101;SDS011;1561;42.666;23.392;2023-08-24T06:27:18;29.08;;;24.35;;
3101;SDS011;1561;42.666;23.392;2023-08-24T06:29:46;26.05;;;23.33;;
3101;SDS011;1561;42.666;23.392;2023-08-24T06:32:12;29.48;;;25.20;;
3101;SDS011;1561;42.666;23.392;2023-08-24T06:34:40;24.23;;;21.83;;
3101;SDS011;1561;42.666;23.392;2023-08-24T06:37:09;22.20;;;20.13;;
3101;SDS011;1561;42.666;23.392;2023-08-24T06:39:37;29.13;;;24.63;;
3101;SDS011;1561;42.666;23.392;2023-08-24T06:42:05;26.83;;;22.50;;
3101;SDS011;1561;42.666;23.392;2023-08-24T06:44:33;23.40;;;21.20;;
3101;SDS011;1561;42.666;23.392;2023-08-24T06:46:59;28.45;;;22.73;;
3101;SDS011;1561;42.666;23.392;2023-08-24T06:49:29;24.52;;;21.92;;
3101;SDS011;1561;42.666;23.392;2023-08-24T06:51:56;27.33;;;23.35;;
3101;SDS011;1561;42.666;23.392;2023-08-24T06:54:27;28.23;;;20.90;;
3101;SDS011;1561;42.666;23.392;2023-08-24T06:56:56;26.73;;;21.83;;
3101;SDS011;1561;42.666;23.392;2023-08-24T06:59:23;24.88;;;22.48;;
3101;SDS011;1561;42.666;23.392;2023-08-24T07:01:50;24.90;;;22.25;;
3101;SDS011;1561;42.666;23.392;2023-08-24T07:04:17;48.97;;;38.40;;
3101;SDS011;1561;42.666;23.392;2023-08-24T07:06:44;26.20;;;23.15;;
3101;SDS011;1561;42.666;23.392;2023-08-24T07:09:15;26.58;;;23.88;;
3101;SDS011;1561;42.666;23.392;2023-08-24T07:11:46;26.20;;;23.60;;
3101;SDS011;1561;42.666;23.392;2023-08-24T07:14:13;25.80;;;21.73;;
3101;SDS011;1561;42.666;23.392;2023-08-24T07:16:40;26.25;;;23.35;;
3101;SDS011;1561;42.666;23.392;2023-08-24T07:19:07;29.15;;;22.83;;
3101;SDS011;1561;42.666;23.392;2023-08-24T07:21:35;24.45;;;22.30;;
3101;SDS011;1561;42.666;23.392;2023-08-24T07:24:03;26.80;;;24.30;;
3101;SDS011;1561;42.666;23.392;2023-08-24T07:26:33;25.17;;;22.50;;
3101;SDS011;1561;42.666;23.392;2023-08-24T07:29:01;25.42;;;22.88;;
3101;SDS011;1561;42.666;23.392;2023-08-24T07:31:28;25.65;;;22.90;;
3101;SDS011;1561;42.666;23.392;2023-08-24T07:33:55;24.80;;;22.02;;
3101;SDS011;1561;42.666;23.392;2023-08-24T07:36:22;24.33;;;22.10;;
3101;SDS011;1561;42.666;23.392;2023-08-24T07:38:49;23.58;;;21.27;;
3101;SDS011;1561;42.666;23.392;2023-08-24T07:41:18;24.63;;;21.95;;
3101;SDS011;1561;42.666;23.392;2023-08-24T07:43:45;24.70;;;22.05;;
3101;SDS011;1561;42.666;23.392;2023-08-24T07:46:13;26.63;;;23.65;;
3101;SDS011;1561;42.666;23.392;2023-08-24T07:48:40;28.00;;;21.48;;
3101;SDS011;1561;42.666;23.392;2023-08-24T07:51:07;26.50;;;22.95;;
3101;SDS011;1561;42.666;23.392;2023-08-24T07:53:34;24.10;;;21.55;;
3101;SDS011;1561;42.666;23.392;2023-08-24T07:56:01;24.50;;;22.13;;
3101;SDS011;1561;42.666;23.392;2023-08-24T07:58:29;25.90;;;22.15;;
3101;SDS011;1561;42.666;23.392;2023-08-24T08:00:57;23.35;;;21.15;;
3101;SDS011;1561;42.666;23.392;2023-08-24T08:03:28;27.10;;;24.48;;
3101;SDS011;1561;42.666;23.392;2023-08-24T08:05:56;25.23;;;22.83;;
3101;SDS011;1561;42.666;23.392;2023-08-24T08:08:23;23.02;;;20.65;;
3101;SDS011;1561;42.666;23.392;2023-08-24T08:10:57;23.65;;;21.40;;
3101;SDS011;1561;42.666;23.392;2023-08-24T08:13:25;23.90;;;21.38;;
3101;SDS011;1561;42.666;23.392;2023-08-24T08:15:52;23.27;;;21.27;;
3101;SDS011;1561;42.666;23.392;2023-08-24T08:18:21;22.90;;;20.40;;
3101;SDS011;1561;42.666;23.392;2023-08-24T08:20:50;25.92;;;20.85;;
3101;SDS011;1561;42.666;23.392;2023-08-24T08:23:18;23.10;;;21.15;;
3101;SDS011;1561;42.666;23.392;2023-08-24T08:25:47;24.15;;;21.70;;
3101;SDS011;1561;42.666;23.392;2023-08-24T08:28:14;21.10;;;19.30;;
3101;SDS011;1561;42.666;23.392;2023-08-24T08:30:41;22.90;;;20.75;;
3101;SDS011;1561;42.666;23.392;2023-08-24T08:33:08;22.17;;;20.35;;
3101;SDS011;1561;42.666;23.392;2023-08-24T08:35:36;22.52;;;19.83;;
3101;SDS011;1561;42.666;23.392;2023-08-24T08:38:06;21.92;;;20.20;;
3101;SDS011;1561;42.666;23.392;2023-08-24T08:40:33;21.98;;;19.95;;
3101;SDS011;1561;42.666;23.392;2023-08-24T08:43:03;19.25;;;17.38;;
3101;SDS011;1561;42.666;23.392;2023-08-24T08:45:31;21.90;;;20.08;;
3101;SDS011;1561;42.666;23.392;2023-08-24T08:48:01;19.92;;;17.83;;
3101;SDS011;1561;42.666;23.392;2023-08-24T08:50:31;19.92;;;17.95;;
3101;SDS011;1561;42.666;23.392;2023-08-24T08:53:00;34.28;;;30.65;;
3101;SDS011;1561;42.666;23.392;2023-08-24T08:55:31;18.30;;;16.45;;
3101;SDS011;1561;42.666;23.392;2023-08-24T08:57:58;19.67;;;17.88;;
3101;SDS011;1561;42.666;23.392;2023-08-24T09:00:30;41.70;;;35.30;;
3101;SDS011;1561;42.666;23.392;2023-08-24T09:02:58;21.00;;;19.23;;
3101;SDS011;1561;42.666;23.392;2023-08-24T09:05:26;19.65;;;17.95;;
3101;SDS011;1561;42.666;23.392;2023-08-24T09:07:53;19.15;;;17.52;;
3101;SDS011;1561;42.666;23.392;2023-08-24T09:10:21;18.25;;;16.95;;
3101;SDS011;1561;42.666;23.392;2023-08-24T09:12:49;19.35;;;17.88;;
3101;SDS011;1561;42.666;23.392;2023-08-24T09:15:23;18.90;;;17.20;;
3101;SDS011;1561;42.666;23.392;2023-08-24T09:17:51;19.25;;;17.45;;
3101;SDS011;1561;42.666;23.392;2023-08-24T09:20:19;18.27;;;16.88;;
3101;SDS011;1561;42.666;23.392;2023-08-24T09:22:46;18.90;;;17.23;;
3101;SDS011;1561;42.666;23.392;2023-08-24T09:25:14;18.50;;;17.00;;
3101;SDS011;1561;42.666;23.392;2023-08-24T09:27:42;19.35;;;17.48;;
3101;SDS011;1561;42.666;23.392;2023-08-24T09:30:11;17.10;;;15.90;;
3101;SDS011;1561;42.666;23.392;2023-08-24T09:32:39;17.90;;;16.40;;
3101;SDS011;1561;42.666;23.392;2023-08-24T09:35:09;16.83;;;15.63;;
3101;SDS011;1561;42.666;23.392;2023-08-24T09:37:38;17.23;;;15.88;;
3101;SDS011;1561;42.666;23.392;2023-08-24T09:40:05;17.95;;;16.40;;
3101;SDS011;1561;42.666;23.392;2023-08-24T09:42:39;18.55;;;16.73;;
3101;SDS011;1561;42.666;23.392;2023-08-24T09:45:09;17.23;;;15.45;;
3101;SDS011;1561;42.666;23.392;2023-08-24T09:47:45;16.75;;;15.55;;
3101;SDS011;1561;42.666;23.392;2023-08-24T09:50:12;18.02;;;16.30;;
3101;SDS011;1561;42.666;23.392;2023-08-24T09:52:39;18.02;;;16.70;;
3101;SDS011;1561;42.666;23.392;2023-08-24T09:55:09;18.25;;;16.73;;
3101;SDS011;1561;42.666;23.392;2023-08-24T09:57:39;17.42;;;16.05;;
3101;SDS011;1561;42.666;23.392;2023-08-24T10:00:08;18.67;;;17.10;;
3101;SDS011;1561;42.666;23.392;2023-08-24T10:02:41;17.55;;;16.38;;
3101;SDS011;1561;42.666;23.392;2023-08-24T10:05:16;18.02;;;16.45;;
3101;SDS011;1561;42.666;23.392;2023-08-24T10:07:47;17.73;;;16.33;;
3101;SDS011;1561;42.666;23.392;2023-08-24T10:10:19;16.52;;;15.23;;
3101;SDS011;1561;42.666;23.392;2023-08-24T10:12:50;17.10;;;15.55;;
3101;SDS011;1561;42.666;23.392;2023-08-24T10:15:18;17.27;;;15.77;;
3101;SDS011;1561;42.666;23.392;2023-08-24T10:17:48;17.80;;;16.25;;
3101;SDS011;1561;42.666;23.392;2023-08-24T10:20:18;15.98;;;14.65;;
3101;SDS011;1561;42.666;23.392;2023-08-24T10:22:46;16.73;;;15.27;;
3101;SDS011;1561;42.666;23.392;2023-08-24T10:25:14;17.80;;;15.57;;
3101;SDS011;1561;42.666;23.392;2023-08-24T10:27:44;15.80;;;14.63;;
3101;SDS011;1561;42.666;23.392;2023-08-24T10:30:13;18.65;;;17.25;;
3101;SDS011;1561;42.666;23.392;2023-08-24T10:32:41;18.83;;;17.55;;
3101;SDS011;1561;42.666;23.392;2023-08-24T10:35:12;17.27;;;15.70;;
3101;SDS011;1561;42.666;23.392;2023-08-24T10:37:43;16.00;;;14.75;;
3101;SDS011;1561;42.666;23.392;2023-08-24T10:40:15;16.58;;;15.32;;
3101;SDS011;1561;42.666;23.392;2023-08-24T10:42:59;16.75;;;15.35;;
3101;SDS011;1561;42.666;23.392;2023-08-24T10:45:45;16.90;;;15.50;;
3101;SDS011;1561;42.666;23.392;2023-08-24T10:48:21;15.63;;;14.13;;
3101;SDS011;1561;42.666;23.392;2023-08-24T10:53:51;17.58;;;16.17;;
3101;SDS011;1561;42.666;23.392;2023-08-24T10:56:20;17.73;;;16.15;;
3101;SDS011;1561;42.666;23.392;2023-08-24T10:59:10;16.95;;;15.55;;
3101;SDS011;1561;42.666;23.392;2023-08-24T11:01:40;18.15;;;16.15;;
3101;SDS011;1561;42.666;23.392;2023-08-24T11:04:07;19.45;;;17.48;;
3101;SDS011;1561;42.666;23.392;2023-08-24T11:06:50;18.13;;;16.58;;
3101;SDS011;1561;42.666;23.392;2023-08-24T11:09:17;18.10;;;16.60;;
3101;SDS011;1561;42.666;23.392;2023-08-24T11:11:55;18.05;;;16.55;;
3101;SDS011;1561;42.666;23.392;2023-08-24T11:14:23;17.92;;;16.23;;
3101;SDS011;1561;42.666;23.392;2023-08-24T11:16:52;23.88;;;16.85;;
3101;SDS011;1561;42.666;23.392;2023-08-24T11:19:24;17.60;;;16.02;;
3101;SDS011;1561;42.666;23.392;2023-08-24T11:21:56;21.85;;;16.25;;
3101;SDS011;1561;42.666;23.392;2023-08-24T11:24:24;19.60;;;17.58;;
3101;SDS011;1561;42.666;23.392;2023-08-24T11:26:52;19.05;;;17.35;;
3101;SDS011;1561;42.666;23.392;2023-08-24T11:29:18;17.25;;;15.57;;
3101;SDS011;1561;42.666;23.392;2023-08-24T11:31:45;18.50;;;16.38;;
3101;SDS011;1561;42.666;23.392;2023-08-24T11:34:14;18.90;;;17.33;;
3101;SDS011;1561;42.666;23.392;2023-08-24T11:36:41;18.77;;;17.27;;
3101;SDS011;1561;42.666;23.392;2023-08-24T11:39:18;19.70;;;18.17;;
3101;SDS011;1561;42.666;23.392;2023-08-24T11:41:57;19.42;;;17.83;;
3101;SDS011;1561;42.666;23.392;2023-08-24T11:44:28;17.50;;;15.88;;
3101;SDS011;1561;42.666;23.392;2023-08-24T11:46:56;18.67;;;17.08;;
3101;SDS011;1561;42.666;23.392;2023-08-24T11:49:25;21.63;;;19.45;;
3101;SDS011;1561;42.666;23.392;2023-08-24T11:51:52;18.05;;;16.55;;
3101;SDS011;1561;42.666;23.392;2023-08-24T11:54:20;18.95;;;17.02;;
3101;SDS011;1561;42.666;23.392;2023-08-24T11:56:47;18.33;;;16.15;;
3101;SDS011;1561;42.666;23.392;2023-08-24T11:59:17;18.30;;;16.70;;
3101;SDS011;1561;42.666;23.392;2023-08-24T12:01:46;20.30;;;18.50;;
3101;SDS011;1561;42.666;23.392;2023-08-24T12:04:13;18.65;;;16.85;;
3101;SDS011;1561;42.666;23.392;2023-08-24T12:06:40;17.48;;;15.95;;
3101;SDS011;1561;42.666;23.392;2023-08-24T12:09:10;18.33;;;15.10;;
3101;SDS011;1561;42.666;23.392;2023-08-24T12:11:38;17.75;;;16.10;;
3101;SDS011;1561;42.666;23.392;2023-08-24T12:14:05;17.13;;;15.70;;
3101;SDS011;1561;42.666;23.392;2023-08-24T12:16:35;15.25;;;13.90;;
3101;SDS011;1561;42.666;23.392;2023-08-24T12:19:07;16.58;;;15.10;;
3101;SDS011;1561;42.666;23.392;2023-08-24T12:21:35;15.68;;;14.27;;
3101;SDS011;1561;42.666;23.392;2023-08-24T12:24:03;15.68;;;14.27;;
3101;SDS011;1561;42.666;23.392;2023-08-24T12:26:32;15.70;;;14.25;;
3101;SDS011;1561;42.666;23.392;2023-08-24T12:29:03;17.88;;;13.40;;
3101;SDS011;1561;42.666;23.392;2023-08-24T12:31:33;16.83;;;15.20;;
3101;SDS011;1561;42.666;23.392;2023-08-24T12:34:07;17.02;;;15.48;;
3101;SDS011;1561;42.666;23.392;2023-08-24T12:36:36;16.90;;;14.85;;
3101;SDS011;1561;42.666;23.392;2023-08-24T12:39:06;17.90;;;16.05;;
3101;SDS011;1561;42.666;23.392;2023-08-24T12:41:38;18.05;;;16.42;;
3101;SDS011;1561;42.666;23.392;2023-08-24T12:44:06;18.48;;;16.67;;
3101;SDS011;1561;42.666;23.392;2023-08-24T12:46:33;18.38;;;16.88;;
3101;SDS011;1561;42.666;23.392;2023-08-24T12:49:01;17.48;;;15.93;;
3101;SDS011;1561;42.666;23.392;2023-08-24T12:51:29;16.67;;;14.95;;
3101;SDS011;1561;42.666;23.392;2023-08-24T12:53:56;15.48;;;14.27;;
3101;SDS011;1561;42.666;23.392;2023-08-24T12:56:22;16.08;;;14.77;;
3101;SDS011;1561;42.666;23.392;2023-08-24T12:58:49;16.52;;;14.88;;
3101;SDS011;1561;42.666;23.392;2023-08-24T13:01:17;17.10;;;15.38;;
3101;SDS011;1561;42.666;23.392;2023-08-24T13:03:44;16.88;;;14.27;;
3101;SDS011;1561;42.666;23.392;2023-08-24T13:06:11;16.98;;;15.40;;
3101;SDS011;1561;42.666;23.392;2023-08-24T13:08:41;16.58;;;14.50;;
3101;SDS011;1561;42.666;23.392;2023-08-24T13:11:07;16.85;;;14.85;;
3101;SDS011;1561;42.666;23.392;2023-08-24T13:13:36;16.48;;;15.00;;
3101;SDS011;1561;42.666;23.392;2023-08-24T13:16:29;16.05;;;14.65;;
3101;SDS011;1561;42.666;23.392;2023-08-24T13:18:57;18.58;;;16.27;;
3101;SDS011;1561;42.666;23.392;2023-08-24T13:21:24;16.35;;;14.68;;
3101;SDS011;1561;42.666;23.392;2023-08-24T13:23:52;21.65;;;15.13;;
3101;SDS011;1561;42.666;23.392;2023-08-24T13:26:21;14.15;;;12.77;;
3101;SDS011;1561;42.666;23.392;2023-08-24T13:28:49;20.00;;;14.95;;
3101;SDS011;1561;42.666;23.392;2023-08-24T13:31:17;15.55;;;14.20;;
3101;SDS011;1561;42.666;23.392;2023-08-24T13:33:46;18.17;;;15.00;;
3101;SDS011;1561;42.666;23.392;2023-08-24T13:36:13;15.93;;;14.38;;
3101;SDS011;1561;42.666;23.392;2023-08-24T13:38:43;16.10;;;14.40;;
3101;SDS011;1561;42.666;23.392;2023-08-24T13:41:12;15.27;;;14.00;;
3101;SDS011;1561;42.666;23.392;2023-08-24T13:43:39;15.63;;;14.25;;
3101;SDS011;1561;42.666;23.392;2023-08-24T13:46:07;15.45;;;14.13;;
3101;SDS011;1561;42.666;23.392;2023-08-24T13:48:35;19.17;;;14.45;;
3101;SDS011;1561;42.666;23.392;2023-08-24T13:51:03;16.88;;;15.13;;
3101;SDS011;1561;42.666;23.392;2023-08-24T13:53:30;18.38;;;15.98;;
3101;SDS011;1561;42.666;23.392;2023-08-24T13:55:59;17.25;;;15.68;;
3101;SDS011;1561;42.666;23.392;2023-08-24T13:58:26;15.65;;;14.35;;
3101;SDS011;1561;42.666;23.392;2023-08-24T14:00:55;17.45;;;16.00;;
3101;SDS011;1561;42.666;23.392;2023-08-24T14:03:23;16.95;;;15.35;;
3101;SDS011;1561;42.666;23.392;2023-08-24T14:05:54;18.67;;;17.23;;
3101;SDS011;1561;42.666;23.392;2023-08-24T14:08:25;18.98;;;17.38;;
3101;SDS011;1561;42.666;23.392;2023-08-24T14:10:52;21.67;;;19.77;;
3101;SDS011;1561;42.666;23.392;2023-08-24T14:13:19;18.85;;;16.98;;
3101;SDS011;1561;42.666;23.392;2023-08-24T14:15:47;18.20;;;15.48;;
3101;SDS011;1561;42.666;23.392;2023-08-24T14:18:15;17.63;;;16.23;;
3101;SDS011;1561;42.666;23.392;2023-08-24T14:20:42;17.27;;;15.57;;
3101;SDS011;1561;42.666;23.392;2023-08-24T14:23:10;16.75;;;15.35;;
3101;SDS011;1561;42.666;23.392;2023-08-24T14:25:39;16.52;;;15.02;;
3101;SDS011;1561;42.666;23.392;2023-08-24T14:28:10;16.77;;;15.38;;
3101;SDS011;1561;42.666;23.392;2023-08-24T14:30:38;17.92;;;16.23;;
3101;SDS011;1561;42.666;23.392;2023-08-24T14:33:04;19.77;;;17.90;;
3101;SDS011;1561;42.666;23.392;2023-08-24T14:35:31;17.30;;;15.85;;
3101;SDS011;1561;42.666;23.392;2023-08-24T14:37:59;17.50;;;15.95;;
3101;SDS011;1561;42.666;23.392;2023-08-24T14:40:26;18.05;;;16.23;;
3101;SDS011;1561;42.666;23.392;2023-08-24T14:42:55;16.73;;;15.07;;
3101;SDS011;1561;42.666;23.392;2023-08-24T14:45:22;16.98;;;15.65;;